createdAt,value
2018-02-10T00:00:14.918Z,81.18
2018-02-10T00:01:45.861Z,81.66
2018-02-10T00:03:13.034Z,81.53
2018-02-10T00:04:39.821Z,81.77
2018-02-10T00:06:02.854Z,82.38
2018-02-10T00:07:33.824Z,81.69
2018-02-10T00:08:56.886Z,82.09
2018-02-10T00:10:27.580Z,81.57
2018-02-10T00:11:50.639Z,81.63
2018-02-10T00:13:17.736Z,81.70
2018-02-10T00:14:48.763Z,82.02
2018-02-10T00:16:15.654Z,82.02
2018-02-10T00:17:42.810Z,82.78
2018-02-10T00:19:09.930Z,83.39
2018-02-10T00:20:32.883Z,83.41
2018-02-10T00:21:59.880Z,83.42
2018-02-10T00:23:30.618Z,83.22
2018-02-10T00:24:57.196Z,83.08
2018-02-10T00:26:24.105Z,83.09
2018-02-10T00:27:51.147Z,82.87
2018-02-10T00:29:17.952Z,82.99
2018-02-10T00:30:44.961Z,82.98
2018-02-10T00:32:11.868Z,83.24
2018-02-10T00:33:34.751Z,83.41
2018-02-10T00:35:01.788Z,83.54
2018-02-10T00:36:28.757Z,83.72
2018-02-10T00:37:59.519Z,83.86
2018-02-10T00:39:22.583Z,83.83
2018-02-10T00:40:49.257Z,83.89
2018-02-10T00:42:19.808Z,83.78
2018-02-10T00:43:42.929Z,83.57
2018-02-10T00:45:13.814Z,83.56
2018-02-10T00:46:40.823Z,83.48
2018-02-10T00:48:07.609Z,83.43
2018-02-10T00:49:34.708Z,83.45
2018-02-10T00:51:01.556Z,83.57
2018-02-10T00:52:24.437Z,83.36
2018-02-10T00:53:51.298Z,83.55
2018-02-10T00:55:22.251Z,83.64
2018-02-10T00:56:49.306Z,83.72
2018-02-10T00:58:16.341Z,83.56
2018-02-10T00:59:43.616Z,83.52
2018-02-10T01:01:06.384Z,83.53
2018-02-10T01:02:33.230Z,83.22
2018-02-10T01:04:00.079Z,83.16
2018-02-10T01:05:30.986Z,83.21
2018-02-10T01:06:54.295Z,83.07
2018-02-10T01:08:25.391Z,82.89
2018-02-10T01:09:52.001Z,82.84
2018-02-10T01:11:14.702Z,83.10
2018-02-10T01:12:41.888Z,83.24
2018-02-10T01:14:13.011Z,82.88
2018-02-10T01:15:40.023Z,82.92
2018-02-10T01:17:07.053Z,83.16
2018-02-10T01:18:33.612Z,83.08
2018-02-10T01:20:00.501Z,83.07
2018-02-10T01:21:23.264Z,83.11
2018-02-10T01:22:50.110Z,83.09
2018-02-10T01:24:17.448Z,83.00
2018-02-10T01:25:48.303Z,83.05
2018-02-10T01:27:11.488Z,83.08
2018-02-10T01:28:42.506Z,83.34
2018-02-10T01:30:05.508Z,83.42
2018-02-10T01:31:32.411Z,83.30
2018-02-10T01:33:03.226Z,83.44
2018-02-10T01:34:26.281Z,83.69
2018-02-10T01:35:53.195Z,83.76
2018-02-10T01:37:20.221Z,83.78
2018-02-10T01:38:47.421Z,83.50
2018-02-10T01:40:18.310Z,83.52
2018-02-10T01:41:45.181Z,83.33
2018-02-10T01:43:12.136Z,83.07
2018-02-10T01:44:39.299Z,83.42
2018-02-10T01:46:06.321Z,83.47
2018-02-10T01:47:29.534Z,83.74
2018-02-10T01:49:00.471Z,84.29
2018-02-10T01:50:23.576Z,84.42
2018-02-10T01:51:50.472Z,84.40
2018-02-10T01:53:17.730Z,84.39
2018-02-10T01:54:48.570Z,84.40
2018-02-10T01:56:11.519Z,84.42
2018-02-10T01:57:42.503Z,84.45
2018-02-10T01:59:09.679Z,84.25
2018-02-10T02:00:36.590Z,84.28
2018-02-10T02:02:03.995Z,84.51
2018-02-10T02:03:30.757Z,84.28
2018-02-10T02:04:57.799Z,83.92
2018-02-10T02:06:20.770Z,84.02
2018-02-10T02:07:51.589Z,84.59
2018-02-10T02:09:18.586Z,84.52
2018-02-10T02:10:45.763Z,84.16
2018-02-10T02:12:12.604Z,84.20
2018-02-10T02:13:36.053Z,83.91
2018-02-10T02:15:02.813Z,84.03
2018-02-10T02:16:33.482Z,84.20
2018-02-10T02:18:00.484Z,83.97
2018-02-10T02:19:23.404Z,84.08
2018-02-10T02:20:54.387Z,84.08
2018-02-10T02:22:17.488Z,84.32
2018-02-10T02:23:44.566Z,84.46
2018-02-10T02:25:15.446Z,84.74
2018-02-10T02:26:38.416Z,85.01
2018-02-10T02:28:09.657Z,85.09
2018-02-10T02:29:32.682Z,85.16
2018-02-10T02:31:03.559Z,85.31
2018-02-10T02:32:26.770Z,85.40
2018-02-10T02:33:57.606Z,85.27
2018-02-10T02:35:24.457Z,85.36
2018-02-10T02:36:47.675Z,85.25
2018-02-10T02:38:19.601Z,85.10
2018-02-10T02:39:45.376Z,85.28
2018-02-10T02:41:12.075Z,85.07
2018-02-10T02:42:39.265Z,84.93
2018-02-10T02:44:02.060Z,85.06
2018-02-10T02:45:33.192Z,85.13
2018-02-10T02:46:59.981Z,85.04
2018-02-10T02:48:27.267Z,84.98
2018-02-10T02:49:53.870Z,85.09
2018-02-10T02:51:17.113Z,85.13
2018-02-10T02:52:48.102Z,85.20
2018-02-10T02:54:15.299Z,84.90
2018-02-10T02:55:42.056Z,84.89
2018-02-10T02:57:05.152Z,85.45
2018-02-10T02:58:35.973Z,85.48
2018-02-10T02:59:59.063Z,85.34
2018-02-10T03:01:29.856Z,84.89
2018-02-10T03:02:57.156Z,84.70
2018-02-10T03:04:23.701Z,85.01
2018-02-10T03:05:46.854Z,85.32
2018-02-10T03:07:17.901Z,85.24
2018-02-10T03:08:41.020Z,85.21
2018-02-10T03:10:07.936Z,85.02
2018-02-10T03:11:34.968Z,84.79
2018-02-10T03:13:02.299Z,84.70
2018-02-10T03:14:33.284Z,84.77
2018-02-10T03:15:56.261Z,84.65
2018-02-10T03:17:23.241Z,84.52
2018-02-10T03:18:50.376Z,84.57
2018-02-10T03:20:21.266Z,84.16
2018-02-10T03:21:48.345Z,84.36
2018-02-10T03:23:15.519Z,84.55
2018-02-10T03:24:42.533Z,83.84
2018-02-10T03:26:09.525Z,84.34
2018-02-10T03:27:36.448Z,84.60
2018-02-10T03:29:03.531Z,84.63
2018-02-10T03:30:30.401Z,84.57
2018-02-10T03:31:57.661Z,84.70
2018-02-10T03:33:24.583Z,84.39
2018-02-10T03:34:51.607Z,84.10
2018-02-10T03:36:14.492Z,84.28
2018-02-10T03:37:45.375Z,83.81
2018-02-10T03:39:08.563Z,84.03
2018-02-10T03:40:35.559Z,84.32
2018-02-10T03:42:06.622Z,84.76
2018-02-10T03:43:33.553Z,85.15
2018-02-10T03:44:56.764Z,85.29
2018-02-10T03:46:27.729Z,85.43
2018-02-10T03:47:51.004Z,85.26
2018-02-10T03:50:44.488Z,84.63
2018-02-10T03:52:11.376Z,84.04
2018-02-10T03:53:42.261Z,84.31
2018-02-10T03:55:05.353Z,84.63
2018-02-10T03:56:32.475Z,84.79
2018-02-10T03:58:03.331Z,84.44
2018-02-10T03:59:30.529Z,84.67
2018-02-10T04:00:53.510Z,83.95
2018-02-10T04:02:20.472Z,84.27
2018-02-10T04:03:51.446Z,84.45
2018-02-10T04:05:18.444Z,84.34
2018-02-10T04:06:45.407Z,84.33
2018-02-10T04:08:12.605Z,84.43
2018-02-10T04:09:39.581Z,84.22
2018-02-10T04:11:02.692Z,84.58
2018-02-10T04:12:33.651Z,84.78
2018-02-10T04:14:00.885Z,84.84
2018-02-10T04:15:27.827Z,85.12
2018-02-10T04:16:50.796Z,85.00
2018-02-10T04:18:17.776Z,84.85
2018-02-10T04:19:48.727Z,84.48
2018-02-10T04:21:11.840Z,84.04
2018-02-10T04:22:43.002Z,84.06
2018-02-10T04:24:10.110Z,84.35
2018-02-10T04:25:37.095Z,84.67
2018-02-10T04:27:00.045Z,84.25
2018-02-10T04:28:31.262Z,84.49
2018-02-10T04:29:54.357Z,84.71
2018-02-10T04:31:25.253Z,84.98
2018-02-10T04:32:52.547Z,84.97
2018-02-10T04:34:15.631Z,84.78
2018-02-10T04:35:46.553Z,84.49
2018-02-10T04:37:13.807Z,84.62
2018-02-10T04:38:40.913Z,84.26
2018-02-10T04:40:07.922Z,83.94
2018-02-10T04:41:30.972Z,84.68
2018-02-10T04:43:01.744Z,85.18
2018-02-10T04:44:24.924Z,85.40
2018-02-10T04:45:55.762Z,85.17
2018-02-10T04:47:22.945Z,84.61
2018-02-10T04:48:50.033Z,84.25
2018-02-10T04:50:17.085Z,83.98
2018-02-10T04:51:44.025Z,83.43
2018-02-10T04:53:07.246Z,83.17
2018-02-10T04:54:38.156Z,83.29
2018-02-10T04:56:05.045Z,83.35
2018-02-10T04:57:27.986Z,83.44
2018-02-10T04:58:55.068Z,83.32
2018-02-10T05:00:26.180Z,83.36
2018-02-10T05:01:48.918Z,83.64
2018-02-10T05:03:15.880Z,83.80
2018-02-10T05:04:46.942Z,84.03
2018-02-10T05:06:09.984Z,84.30
2018-02-10T05:07:41.076Z,83.86
2018-02-10T05:09:04.272Z,83.76
2018-02-10T05:10:31.323Z,83.65
2018-02-10T05:12:02.465Z,83.96
2018-02-10T05:13:25.421Z,83.96
2018-02-10T05:14:56.291Z,84.14
2018-02-10T05:16:19.352Z,84.47
2018-02-10T05:17:50.394Z,84.59
2018-02-10T05:19:17.625Z,84.41
2018-02-10T05:20:44.877Z,84.75
2018-02-10T05:22:11.777Z,84.83
2018-02-10T05:23:38.732Z,84.77
2018-02-10T05:25:01.764Z,84.43
2018-02-10T05:26:32.803Z,84.14
2018-02-10T05:27:59.883Z,84.08
2018-02-10T05:29:26.964Z,84.24
2018-02-10T05:30:53.917Z,84.34
2018-02-10T05:32:20.837Z,84.44
2018-02-10T05:33:43.916Z,84.39
2018-02-10T05:35:10.999Z,84.08
2018-02-10T05:36:41.970Z,83.76
2018-02-10T05:38:08.875Z,84.34
2018-02-10T05:39:36.079Z,84.53
2018-02-10T05:40:59.057Z,84.76
2018-02-10T05:42:26.027Z,84.52
2018-02-10T05:43:53.004Z,84.68
2018-02-10T05:45:19.946Z,84.51
2018-02-10T05:46:47.099Z,84.69
2018-02-10T05:48:18.393Z,84.51
2018-02-10T05:49:41.378Z,84.06
2018-02-10T05:51:12.381Z,83.53
2018-02-10T05:52:35.452Z,83.28
2018-02-10T05:54:06.497Z,83.33
2018-02-10T05:55:33.415Z,83.49
2018-02-10T05:56:56.284Z,83.56
2018-02-10T05:58:27.139Z,83.86
2018-02-10T05:59:50.177Z,84.15
2018-02-10T06:01:21.037Z,84.25
2018-02-10T06:02:44.017Z,84.24
2018-02-10T06:04:14.887Z,84.23
2018-02-10T06:05:38.139Z,84.31
2018-02-10T06:07:09.083Z,84.31
2018-02-10T06:08:36.189Z,84.24
2018-02-10T06:10:03.172Z,84.30
2018-02-10T06:11:26.308Z,84.26
2018-02-10T06:12:53.385Z,84.09
2018-02-10T06:14:24.448Z,83.91
2018-02-10T06:15:47.597Z,83.65
2018-02-10T06:17:14.466Z,83.58
2018-02-10T06:18:45.316Z,83.58
2018-02-10T06:20:12.400Z,83.51
2018-02-10T06:21:39.490Z,83.50
2018-02-10T06:23:06.528Z,83.50
2018-02-10T06:24:29.691Z,83.56
2018-02-10T06:25:56.557Z,83.53
2018-02-10T06:27:23.480Z,83.49
2018-02-10T06:28:50.648Z,83.72
2018-02-10T06:30:17.693Z,83.88
2018-02-10T06:31:48.746Z,84.01
2018-02-10T06:33:11.812Z,84.08
2018-02-10T06:34:42.984Z,84.21
2018-02-10T06:36:10.077Z,84.37
2018-02-10T06:37:33.090Z,84.44
2018-02-10T06:39:04.246Z,84.36
2018-02-10T06:40:27.255Z,84.44
2018-02-10T06:41:58.344Z,84.50
2018-02-10T06:43:21.371Z,84.72
2018-02-10T06:44:48.673Z,84.69
2018-02-10T06:46:19.633Z,84.75
2018-02-10T06:47:42.784Z,84.40
2018-02-10T06:49:13.946Z,84.57
2018-02-10T06:50:40.939Z,84.56
2018-02-10T06:52:03.992Z,84.50
2018-02-10T06:53:34.977Z,84.51
2018-02-10T06:54:58.231Z,84.61
2018-02-10T06:56:29.248Z,84.72
2018-02-10T06:57:52.207Z,84.74
2018-02-10T06:59:22.948Z,84.44
2018-02-10T07:00:46.088Z,84.44
2018-02-10T07:02:12.856Z,84.36
2018-02-10T07:03:39.935Z,84.44
2018-02-10T07:05:10.937Z,84.43
2018-02-10T07:06:38.177Z,84.62
2018-02-10T07:08:04.826Z,84.45
2018-02-10T07:09:32.177Z,84.66
2018-02-10T07:10:54.905Z,84.65
2018-02-10T07:12:25.744Z,84.72
2018-02-10T07:13:48.998Z,84.80
2018-02-10T07:15:19.762Z,84.76
2018-02-10T07:16:42.933Z,84.71
2018-02-10T07:18:13.976Z,84.79
2018-02-10T07:19:37.126Z,84.44
2018-02-10T07:21:08.137Z,84.63
2018-02-10T07:22:35.042Z,84.68
2018-02-10T07:23:58.144Z,84.75
2018-02-10T07:25:29.128Z,84.62
2018-02-10T07:26:52.014Z,84.53
2018-02-10T07:28:18.769Z,84.53
2018-02-10T07:29:49.809Z,84.38
2018-02-10T07:31:16.887Z,84.55
2018-02-10T07:32:39.826Z,84.61
2018-02-10T07:34:10.864Z,84.62
2018-02-10T07:35:33.977Z,84.76
2018-02-10T07:37:01.206Z,85.11
2018-02-10T07:38:32.153Z,85.09
2018-02-10T07:39:58.964Z,85.24
2018-02-10T07:41:22.014Z,85.55
2018-02-10T07:42:48.862Z,85.43
2018-02-10T07:44:15.852Z,85.29
2018-02-10T07:45:46.718Z,85.25
2018-02-10T07:47:09.829Z,85.31
2018-02-10T07:48:40.690Z,85.39
2018-02-10T07:50:07.988Z,85.41
2018-02-10T07:51:34.819Z,85.42
2018-02-10T07:53:01.820Z,85.67
2018-02-10T07:54:24.743Z,85.70
2018-02-10T07:55:55.757Z,85.61
2018-02-10T07:57:23.030Z,85.75
2018-02-10T07:58:46.101Z,85.64
2018-02-10T08:00:17.061Z,85.59
2018-02-10T08:01:43.954Z,85.60
2018-02-10T08:03:11.106Z,85.65
2018-02-10T08:04:38.304Z,85.73
2018-02-10T08:06:05.147Z,85.87
2018-02-10T08:07:27.646Z,85.92
2018-02-10T08:08:58.345Z,85.96
2018-02-10T08:10:25.242Z,85.92
2018-02-10T08:11:48.426Z,86.07
2018-02-10T08:13:19.427Z,85.96
2018-02-10T08:14:46.074Z,85.86
2018-02-10T08:16:13.391Z,85.91
2018-02-10T08:17:36.566Z,85.97
2018-02-10T08:19:03.623Z,86.13
2018-02-10T08:20:30.492Z,86.22
2018-02-10T08:22:00.793Z,85.78
2018-02-10T08:23:27.784Z,85.77
2018-02-10T08:24:54.734Z,85.63
2018-02-10T08:26:17.518Z,85.73
2018-02-10T08:27:44.172Z,85.71
2018-02-10T08:29:15.163Z,85.69
2018-02-10T08:30:42.286Z,85.52
2018-02-10T08:32:09.291Z,85.64
2018-02-10T08:33:36.369Z,85.81
2018-02-10T08:35:03.400Z,85.83
2018-02-10T08:36:30.353Z,86.11
2018-02-10T08:37:53.393Z,86.22
2018-02-10T08:39:20.260Z,86.44
2018-02-10T08:40:51.277Z,86.23
2018-02-10T08:42:14.393Z,86.35
2018-02-10T08:43:41.535Z,86.45
2018-02-10T08:45:12.308Z,86.29
2018-02-10T08:46:39.403Z,85.84
2018-02-10T08:48:06.329Z,85.89
2018-02-10T08:49:33.170Z,85.57
2018-02-10T08:51:00.438Z,85.70
2018-02-10T08:52:23.511Z,85.43
2018-02-10T08:53:50.525Z,85.60
2018-02-10T08:55:17.632Z,85.83
2018-02-10T08:56:48.703Z,85.48
2018-02-10T08:58:11.534Z,85.39
2018-02-10T08:59:38.504Z,85.47
2018-02-10T09:01:05.674Z,85.50
2018-02-10T09:02:32.965Z,85.63
2018-02-10T09:03:59.861Z,85.42
2018-02-10T09:05:30.872Z,85.21
2018-02-10T09:06:54.002Z,85.41
2018-02-10T09:08:24.949Z,85.27
2018-02-10T09:09:51.996Z,85.21
2018-02-10T09:11:15.101Z,84.99
2018-02-10T09:12:42.305Z,84.61
2018-02-10T09:14:14.272Z,84.78
2018-02-10T09:15:36.478Z,84.84
2018-02-10T09:17:07.506Z,85.18
2018-02-10T09:18:34.061Z,84.84
2018-02-10T09:19:56.931Z,84.66
2018-02-10T09:21:24.082Z,84.75
2018-02-10T09:22:54.673Z,84.86
2018-02-10T09:24:22.039Z,84.76
2018-02-10T09:25:48.858Z,84.13
2018-02-10T09:27:15.659Z,84.15
2018-02-10T09:28:38.625Z,84.55
2018-02-10T09:30:09.644Z,85.05
2018-02-10T09:31:36.846Z,84.98
2018-02-10T09:33:04.081Z,84.96
2018-02-10T09:34:31.292Z,84.96
2018-02-10T09:35:54.349Z,85.05
2018-02-10T09:37:21.275Z,84.69
2018-02-10T09:38:48.188Z,84.35
2018-02-10T09:40:19.412Z,84.11
2018-02-10T09:41:46.512Z,84.17
2018-02-10T09:43:13.778Z,84.41
2018-02-10T09:44:40.725Z,84.07
2018-02-10T09:46:08.091Z,84.34
2018-02-10T09:47:31.087Z,84.40
2018-02-10T09:49:02.211Z,84.10
2018-02-10T09:50:25.087Z,84.16
2018-02-10T09:51:56.117Z,83.82
2018-02-10T09:53:22.639Z,83.58
2018-02-10T09:54:50.036Z,83.41
2018-02-10T09:56:13.268Z,83.67
2018-02-10T09:57:40.478Z,83.51
2018-02-10T09:59:07.371Z,83.14
2018-02-10T10:00:38.474Z,82.93
2018-02-10T10:02:01.258Z,82.81
2018-02-10T10:03:32.244Z,82.59
2018-02-10T10:04:59.502Z,82.57
2018-02-10T10:06:26.724Z,82.36
2018-02-10T10:07:49.846Z,82.44
2018-02-10T10:09:17.041Z,82.20
2018-02-10T10:10:48.138Z,82.73
2018-02-10T10:12:15.412Z,82.72
2018-02-10T10:13:42.173Z,83.24
2018-02-10T10:15:05.370Z,82.60
2018-02-10T10:16:36.453Z,82.26
2018-02-10T10:18:03.617Z,82.14
2018-02-10T10:19:30.588Z,81.86
2018-02-10T10:20:53.527Z,81.70
2018-02-10T10:22:20.514Z,81.49
2018-02-10T10:23:47.575Z,81.52
2018-02-10T10:25:14.658Z,81.88
2018-02-10T10:26:45.788Z,81.94
2018-02-10T10:28:12.815Z,81.52
2018-02-10T10:29:35.898Z,81.30
2018-02-10T10:31:06.914Z,81.31
2018-02-10T10:32:30.149Z,80.95
2018-02-10T10:34:00.691Z,80.73
2018-02-10T10:35:23.797Z,80.61
2018-02-10T10:36:51.028Z,80.35
2018-02-10T10:38:22.284Z,80.22
2018-02-10T10:39:45.274Z,80.35
2018-02-10T10:41:12.188Z,80.75
2018-02-10T10:42:43.440Z,80.48
2018-02-10T10:44:06.418Z,80.88
2018-02-10T10:45:33.428Z,81.02
2018-02-10T10:47:04.340Z,81.18
2018-02-10T10:48:31.381Z,81.03
2018-02-10T10:49:58.552Z,80.58
2018-02-10T10:51:25.782Z,80.50
2018-02-10T10:52:52.921Z,80.46
2018-02-10T10:54:20.230Z,80.24
2018-02-10T10:55:47.514Z,80.17
2018-02-10T10:57:10.066Z,79.75
2018-02-10T10:58:41.227Z,79.76
2018-02-10T11:00:08.183Z,79.42
2018-02-10T11:01:35.522Z,79.75
2018-02-10T11:03:02.347Z,79.22
2018-02-10T11:04:29.272Z,79.21
2018-02-10T11:05:52.447Z,79.14
2018-02-10T11:07:19.393Z,78.95
2018-02-10T11:08:50.516Z,78.93
2018-02-10T11:10:13.857Z,78.37
2018-02-10T11:11:40.804Z,78.60
2018-02-10T11:13:12.144Z,78.03
2018-02-10T11:14:39.445Z,78.54
2018-02-10T11:16:06.038Z,78.14
2018-02-10T11:17:29.298Z,77.78
2018-02-10T11:19:00.476Z,77.40
2018-02-10T11:20:27.403Z,77.17
2018-02-10T11:21:50.454Z,77.68
2018-02-10T11:23:22.501Z,78.16
2018-02-10T11:24:48.923Z,77.64
2018-02-10T11:26:15.879Z,77.66
2018-02-10T11:27:38.522Z,77.33
2018-02-10T11:29:05.679Z,77.16
2018-02-10T11:30:36.952Z,76.80
2018-02-10T11:31:59.977Z,76.79
2018-02-10T11:33:27.158Z,77.06
2018-02-10T11:34:58.337Z,77.42
2018-02-10T11:36:21.324Z,77.13
2018-02-10T11:37:48.557Z,76.75
2018-02-10T11:39:15.792Z,76.99
2018-02-10T11:40:46.943Z,75.81
2018-02-10T11:42:14.116Z,75.99
2018-02-10T11:43:37.271Z,75.93
2018-02-10T11:45:08.088Z,75.53
2018-02-10T11:46:31.112Z,75.82
2018-02-10T11:47:58.202Z,75.28
2018-02-10T11:49:29.370Z,74.35
2018-02-10T11:50:52.139Z,74.60
2018-02-10T11:52:23.147Z,74.62
2018-02-10T11:53:46.428Z,73.61
2018-02-10T11:55:13.604Z,74.20
2018-02-10T11:56:44.706Z,74.96
2018-02-10T11:58:07.965Z,74.83
2018-02-10T11:59:35.222Z,75.18
2018-02-10T12:01:02.345Z,74.43
2018-02-10T12:02:33.513Z,74.53
2018-02-10T12:03:56.970Z,74.31
2018-02-10T12:05:27.943Z,74.58
2018-02-10T12:06:55.085Z,73.53
2018-02-10T12:08:18.211Z,73.89
2018-02-10T12:09:44.929Z,74.47
2018-02-10T12:11:16.118Z,74.09
2018-02-10T12:12:43.236Z,74.29
2018-02-10T12:14:10.421Z,74.06
2018-02-10T12:15:37.437Z,73.75
2018-02-10T12:17:00.611Z,73.75
2018-02-10T12:18:27.826Z,73.84
2018-02-10T12:19:58.737Z,73.84
2018-02-10T12:21:25.700Z,73.88
2018-02-10T12:22:52.951Z,73.64
2018-02-10T12:24:19.618Z,73.10
2018-02-10T12:25:42.901Z,72.94
2018-02-10T12:27:10.213Z,73.33
2018-02-10T12:28:41.114Z,74.22
2018-02-10T12:30:12.501Z,74.40
2018-02-10T12:31:31.748Z,73.70
2018-02-10T12:33:02.567Z,74.73
2018-02-10T12:34:29.774Z,74.73
2018-02-10T12:35:56.798Z,73.71
2018-02-10T12:37:23.946Z,73.79
2018-02-10T12:38:47.185Z,72.42
2018-02-10T12:40:18.277Z,72.33
2018-02-10T12:41:45.624Z,73.28
2018-02-10T12:43:08.963Z,72.26
2018-02-10T12:44:39.787Z,72.02
2018-02-10T12:46:03.163Z,71.96
2018-02-10T12:47:33.842Z,71.61
2018-02-10T12:48:57.116Z,70.01
2018-02-10T12:50:28.155Z,70.84
2018-02-10T12:51:51.199Z,70.59
2018-02-10T12:53:22.429Z,70.46
2018-02-10T12:54:45.696Z,69.82
2018-02-10T12:56:16.833Z,70.45
2018-02-10T12:57:40.000Z,69.58
2018-02-10T12:59:11.174Z,69.28
2018-02-10T13:00:34.436Z,69.14
2018-02-10T13:02:01.790Z,68.83
2018-02-10T13:03:32.840Z,69.60
2018-02-10T13:04:56.103Z,69.03
2018-02-10T13:06:27.217Z,68.70
2018-02-10T13:07:50.290Z,68.45
2018-02-10T13:09:17.392Z,69.03
2018-02-10T13:10:44.506Z,69.18
2018-02-10T13:12:11.892Z,68.49
2018-02-10T13:13:43.185Z,68.36
2018-02-10T13:15:06.577Z,68.47
2018-02-10T13:16:37.311Z,68.93
2018-02-10T13:18:00.612Z,68.80
2018-02-10T13:19:27.626Z,68.31
2018-02-10T13:20:54.926Z,68.73
2018-02-10T13:22:26.074Z,69.19
2018-02-10T13:23:49.220Z,69.05
2018-02-10T13:25:16.431Z,68.92
2018-02-10T13:26:43.506Z,68.17
2018-02-10T13:28:10.601Z,68.56
2018-02-10T13:29:37.930Z,68.50
2018-02-10T13:31:04.783Z,68.46
2018-02-10T13:32:35.753Z,68.58
2018-02-10T13:33:59.164Z,68.48
2018-02-10T13:35:26.279Z,68.86
2018-02-10T13:36:53.556Z,68.49
2018-02-10T13:38:20.374Z,68.42
2018-02-10T13:39:51.690Z,67.91
2018-02-10T13:41:18.923Z,66.43
2018-02-10T13:42:41.588Z,67.92
2018-02-10T13:44:08.748Z,67.80
2018-02-10T13:45:39.962Z,67.91
2018-02-10T13:47:07.116Z,67.76
2018-02-10T13:48:29.860Z,67.71
2018-02-10T13:49:56.953Z,67.57
2018-02-10T13:51:27.949Z,68.05
2018-02-10T13:52:50.976Z,68.53
2018-02-10T13:54:22.251Z,68.06
2018-02-10T13:55:49.540Z,68.03
2018-02-10T13:57:12.791Z,67.90
2018-02-10T13:58:40.006Z,67.77
2018-02-10T14:00:06.530Z,67.85
2018-02-10T14:01:33.825Z,68.71
2018-02-10T14:03:00.976Z,68.17
2018-02-10T14:04:31.910Z,68.53
2018-02-10T14:05:58.817Z,68.52
2018-02-10T14:07:25.894Z,68.90
2018-02-10T14:08:49.092Z,69.20
2018-02-10T14:10:16.189Z,69.25
2018-02-10T14:11:43.396Z,68.72
2018-02-10T14:13:14.618Z,69.15
2018-02-10T14:14:37.954Z,68.92
2018-02-10T14:16:05.222Z,68.95
2018-02-10T14:17:32.399Z,69.20
2018-02-10T14:18:59.611Z,69.54
2018-02-10T14:20:26.810Z,69.17
2018-02-10T14:21:57.716Z,69.34
2018-02-10T14:23:20.710Z,69.53
2018-02-10T14:24:51.958Z,70.09
2018-02-10T14:26:19.187Z,70.19
2018-02-10T14:27:46.418Z,70.37
2018-02-10T14:29:13.478Z,70.82
2018-02-10T14:30:50.387Z,71.30
2018-02-10T14:32:13.346Z,71.45
2018-02-10T14:33:40.676Z,71.66
2018-02-10T14:35:08.030Z,71.65
2018-02-10T14:36:38.997Z,71.89
2018-02-10T14:38:02.219Z,71.91
2018-02-10T14:39:29.380Z,72.19
2018-02-10T14:40:56.633Z,72.14
2018-02-10T14:42:23.601Z,72.25
2018-02-10T14:43:50.526Z,72.17
2018-02-10T14:45:21.724Z,72.11
2018-02-10T14:46:48.985Z,72.31
2018-02-10T14:48:16.160Z,72.35
2018-02-10T14:49:43.451Z,72.23
2018-02-10T14:51:06.877Z,72.30
2018-02-10T14:52:37.926Z,72.46
2018-02-10T14:54:04.826Z,72.54
2018-02-10T14:55:31.953Z,72.96
2018-02-10T14:56:55.051Z,72.87
2018-02-10T14:58:22.001Z,72.91
2018-02-10T14:59:49.331Z,72.85
2018-02-10T15:01:20.464Z,72.69
2018-02-10T15:02:43.499Z,72.92
2018-02-10T15:04:10.392Z,72.94
2018-02-10T15:05:41.644Z,73.19
2018-02-10T15:07:04.736Z,73.24
2018-02-10T15:08:35.999Z,72.75
2018-02-10T15:10:03.287Z,73.10
2018-02-10T15:11:30.350Z,73.58
2018-02-10T15:12:57.700Z,73.75
2018-02-10T15:14:24.601Z,73.81
2018-02-10T15:15:51.838Z,73.61
2018-02-10T15:17:19.085Z,74.23
2018-02-10T15:18:42.132Z,74.01
2018-02-10T15:20:13.374Z,73.73
2018-02-10T15:21:36.587Z,74.11
2018-02-10T15:23:07.270Z,74.36
2018-02-10T15:24:30.369Z,74.73
2018-02-10T15:25:57.174Z,75.04
2018-02-10T15:27:28.099Z,74.84
2018-02-10T15:28:55.184Z,74.98
2018-02-10T15:30:18.427Z,74.92
2018-02-10T15:31:45.678Z,75.23
2018-02-10T15:33:12.979Z,75.52
2018-02-10T15:34:44.184Z,75.02
2018-02-10T15:36:07.531Z,75.09
2018-02-10T15:37:34.706Z,75.34
2018-02-10T15:39:05.829Z,75.17
2018-02-10T15:40:33.070Z,75.28
2018-02-10T15:41:56.422Z,75.38
2018-02-10T15:43:27.377Z,75.58
2018-02-10T15:44:50.576Z,75.77
2018-02-10T15:46:17.822Z,75.93
2018-02-10T15:47:44.929Z,75.93
2018-02-10T15:49:15.917Z,75.58
2018-02-10T15:50:43.259Z,75.62
2018-02-10T15:52:10.392Z,75.88
2018-02-10T15:53:33.405Z,76.28
2018-02-10T15:55:00.350Z,76.61
2018-02-10T15:56:31.361Z,76.96
2018-02-10T15:57:58.442Z,77.08
2018-02-10T15:59:25.535Z,77.28
2018-02-10T16:00:52.569Z,77.33
2018-02-10T16:02:19.501Z,77.44
2018-02-10T16:03:42.771Z,77.47
2018-02-10T16:05:09.992Z,77.35
2018-02-10T16:06:37.113Z,77.59
2018-02-10T16:08:04.399Z,77.73
2018-02-10T16:09:35.364Z,77.90
2018-02-10T16:11:02.597Z,78.19
2018-02-10T16:12:29.509Z,78.37
2018-02-10T16:13:56.712Z,78.49
2018-02-10T16:15:23.868Z,78.79
2018-02-10T16:16:46.831Z,78.97
2018-02-10T16:18:13.823Z,78.79
2018-02-10T16:19:40.777Z,78.69
2018-02-10T16:21:07.701Z,78.65
2018-02-10T16:22:38.817Z,78.69
2018-02-10T16:24:05.963Z,78.88
2018-02-10T16:25:29.212Z,78.92
2018-02-10T16:26:56.394Z,79.02
2018-02-10T16:28:23.278Z,78.94
2018-02-10T16:29:50.350Z,78.90
2018-02-10T16:31:21.390Z,78.71
2018-02-10T16:32:48.601Z,78.72
2018-02-10T16:34:15.797Z,78.73
2018-02-10T16:35:38.925Z,78.59
2018-02-10T16:37:06.115Z,78.77
2018-02-10T16:38:33.220Z,79.02
2018-02-10T16:40:04.184Z,79.14
2018-02-10T16:41:27.251Z,79.23
2018-02-10T16:42:54.428Z,79.27
2018-02-10T16:44:21.485Z,79.12
2018-02-10T16:45:52.452Z,79.23
2018-02-10T16:47:19.648Z,79.40
2018-02-10T16:48:46.700Z,79.78
2018-02-10T16:50:13.542Z,79.92
2018-02-10T16:51:40.637Z,80.22
2018-02-10T16:53:07.570Z,80.29
2018-02-10T16:54:34.607Z,80.55
2018-02-10T16:55:57.786Z,80.92
2018-02-10T16:57:29.115Z,80.95
2018-02-10T16:58:52.363Z,80.91
2018-02-10T17:00:23.408Z,80.81
2018-02-10T17:01:50.487Z,80.75
2018-02-10T17:03:17.295Z,80.78
2018-02-10T17:04:44.154Z,80.82
2018-02-10T17:06:11.345Z,80.48
2018-02-10T17:07:38.397Z,80.70
2018-02-10T17:09:05.096Z,80.67
2018-02-10T17:10:28.302Z,80.74
2018-02-10T17:11:55.517Z,80.81
2018-02-10T17:13:26.590Z,81.01
2018-02-10T17:14:53.606Z,81.10
2018-02-10T17:16:16.662Z,81.36
2018-02-10T17:17:47.599Z,81.56
2018-02-10T17:19:10.817Z,81.64
2018-02-10T17:20:41.852Z,81.97
2018-02-10T17:22:08.865Z,81.76
2018-02-10T17:23:31.869Z,81.55
2018-02-10T17:25:02.797Z,81.63
2018-02-10T17:26:25.903Z,81.42
2018-02-10T17:27:52.857Z,81.64
2018-02-10T17:29:20.113Z,81.88
2018-02-10T17:30:51.148Z,81.91
2018-02-10T17:32:14.429Z,82.08
2018-02-10T17:33:45.312Z,81.97
2018-02-10T17:35:08.409Z,81.90
2018-02-10T17:36:35.481Z,81.79
2018-02-10T17:38:02.345Z,81.11
2018-02-10T17:39:33.349Z,80.60
2018-02-10T17:41:00.432Z,80.40
2018-02-10T17:42:27.493Z,80.32
2018-02-10T17:43:54.658Z,80.24
2018-02-10T17:45:17.865Z,80.22
2018-02-10T17:46:48.889Z,80.13
2018-02-10T17:48:16.108Z,79.94
2018-02-10T17:49:43.144Z,79.96
2018-02-10T17:51:10.026Z,80.29
2018-02-10T17:52:37.236Z,80.22
2018-02-10T17:54:04.395Z,80.08
2018-02-10T17:55:31.567Z,79.70
2018-02-10T17:56:58.739Z,79.99
2018-02-10T17:58:21.988Z,80.09
2018-02-10T17:59:52.881Z,79.78
2018-02-10T18:01:20.060Z,79.63
2018-02-10T18:02:46.959Z,79.69
2018-02-10T18:04:13.812Z,79.64
2018-02-10T18:05:37.034Z,79.07
2018-02-10T18:07:03.940Z,79.52
2018-02-10T18:08:35.183Z,79.94
2018-02-10T18:09:58.485Z,79.95
2018-02-10T18:11:25.481Z,80.21
2018-02-10T18:12:56.653Z,80.17
2018-02-10T18:14:23.457Z,80.24
2018-02-10T18:15:50.547Z,80.08
2018-02-10T18:17:17.749Z,80.09
2018-02-10T18:18:44.588Z,80.29
2018-02-10T18:20:11.758Z,80.43
2018-02-10T18:21:34.506Z,80.60
2018-02-10T18:23:05.375Z,80.67
2018-02-10T18:24:32.398Z,80.60
2018-02-10T18:25:55.555Z,80.70
2018-02-10T18:27:22.696Z,81.12
2018-02-10T18:28:49.839Z,80.98
2018-02-10T18:30:20.988Z,81.07
2018-02-10T18:31:44.104Z,81.20
2018-02-10T18:33:15.267Z,81.56
2018-02-10T18:34:42.129Z,81.59
2018-02-10T18:36:09.059Z,81.29
2018-02-10T18:37:32.054Z,81.10
2018-02-10T18:39:03.335Z,80.86
2018-02-10T18:40:26.637Z,81.02
2018-02-10T18:41:53.674Z,81.14